Terminal Aerodrome Forecast
Issued by NWS Cleveland, OH

Home | Current Version | Previous Version | Text Only | Print | Product List | Glossary Off
Versions: 1 2 3 4 5 6 7 8 9 10 11 12 13 14 15

000
FTUS41 KCLE 171131
TAFCAK
TAF
KCAK 171131Z 1712/1812 00000KT 2SM BR SCT004
      TEMPO 1712/1714 1/2SM FG VV004
     FM171500 VRB04KT P6SM SCT040
     FM180000 00000KT P6SM BKN040=

USA.gov is the U.S. government's official web portal to all federal, state and local government web resources and services.